Last 24 Hour KALB Observations

Last 24 hours of surface weather observations from the Albany County Airport. Observations taken by the National Weather Service.


		
KALB 231551Z 28006KT 10SM SCT042 SCT150 SCT180 BKN250 24/12 A3001 RMK AO2
 SLP162 T02390122=
KALB 231651Z 35006KT 10SM SCT044 SCT180 BKN250 25/12 A3000 RMK AO2 SLP159
 T02500122=
KALB 231751Z 34007KT 10SM SCT047 SCT180 BKN250 24/12 A3000 RMK AO2 SLP158
 T02440117 10250 20183 56006=
KALB 231851Z 35005KT 10SM SCT045 BKN070 BKN250 24/12 A3001 RMK AO2 SLP160
 T02390122=
KALB 231951Z 36004KT 10SM FEW070 SCT200 BKN250 24/12 A3001 RMK AO2 SLP161
 T02440117=
KALB 232051Z 33004KT 10SM FEW060 BKN070 BKN200 BKN250 23/12 A3000 RMK AO2
 SLP159 T02330117 50000=
KALB 232151Z 31007KT 10SM FEW060 FEW070 SCT200 BKN250 23/13 A3001 RMK AO2
 SLP163 T02280128=
KALB 232251Z 34005KT 10SM SCT075 SCT180 BKN250 23/13 A3002 RMK AO2 SLP165
 T02280133=
KALB 232351Z 35005KT 10SM BKN070 BKN150 BKN250 21/13 A3004 RMK AO2 SLP170
 T02110128 10250 20211 53012=
KALB 240051Z 34005KT 10SM BKN075 BKN250 21/11 A3006 RMK AO2 SLP176 T02060106=
KALB 240151Z 35006KT 10SM SCT080 SCT250 18/11 A3007 RMK AO2 SLP183 T01830106=
KALB 240251Z 02003KT 10SM FEW080 FEW250 18/11 A3009 RMK AO2 SLP188 T01780106
 51018=
KALB 240351Z 32005KT 10SM FEW250 16/11 A3010 RMK AO2 SLP193 T01610106=
KALB 240451Z 33004KT 10SM FEW070 16/10 A3013 RMK AO2 SLP201 T01560100 402500144=
KALB 240551Z 00000KT 10SM FEW070 15/11 A3014 RMK AO2 SLP204 T01500106 10211
 20144 51016=
KALB 240651Z 00000KT 10SM FEW070 14/10 A3014 RMK AO2 SLP207 T01390100=
KALB 240751Z 06003KT 10SM CLR 13/10 A3014 RMK AO2 SLP207 T01330100=
KALB 240851Z 00000KT 10SM CLR 13/10 A3015 RMK AO2 SLP211 T01280100 53006=
KALB 240951Z 35003KT 10SM FEW080 13/10 A3017 RMK AO2 SLP217 T01280100=
KALB 241051Z 00000KT 10SM FEW060 13/10 A3020 RMK AO2 SLP225 T01280100=
KALB 241151Z 35004KT 10SM FEW060 15/11 A3022 RMK AO2 SLP233 T01500106 10150
 20117 53022=
KALB 241251Z 33007KT 230V360 10SM FEW060 17/11 A3023 RMK AO2 SLP236 T01670106=
KALB 241351Z 35008KT 10SM FEW030 18/11 A3023 RMK AO2 SLP236 T01830111=
KALB 241451Z 01008KT 10SM SCT033 20/12 A3023 RMK AO2 SLP235 T02000117 50002=
KALB 241551Z 03008KT 10SM SCT034 BKN044 19/11 A3023 RMK AO2 SLP236 SCT V BKN
 T01940111=